sensor_id;sensor_type;location;lat;lon;timestamp;temperature;humidity
70366;DHT22;57787;48.216;12.396;2022-08-24T00:02:27;14.40;86.40
70366;DHT22;57787;48.216;12.396;2022-08-24T00:04:54;14.40;85.50
70366;DHT22;57787;48.216;12.396;2022-08-24T00:07:21;14.40;85.50
70366;DHT22;57787;48.216;12.396;2022-08-24T00:09:53;14.40;85.90
70366;DHT22;57787;48.216;12.396;2022-08-24T00:12:21;14.30;85.40
70366;DHT22;57787;48.216;12.396;2022-08-24T00:14:48;14.30;85.00
70366;DHT22;57787;48.216;12.396;2022-08-24T00:17:15;14.30;85.30
70366;DHT22;57787;48.216;12.396;2022-08-24T00:19:43;14.30;85.10
70366;DHT22;57787;48.216;12.396;2022-08-24T00:22:12;14.30;85.80
70366;DHT22;57787;48.216;12.396;2022-08-24T00:24:39;14.20;85.10
70366;DHT22;57787;48.216;12.396;2022-08-24T00:27:06;14.20;84.90
70366;DHT22;57787;48.216;12.396;2022-08-24T00:29:33;14.20;85.70
70366;DHT22;57787;48.216;12.396;2022-08-24T00:32:00;14.20;85.60
70366;DHT22;57787;48.216;12.396;2022-08-24T00:34:27;14.10;86.00
70366;DHT22;57787;48.216;12.396;2022-08-24T00:36:56;14.10;85.70
70366;DHT22;57787;48.216;12.396;2022-08-24T00:39:23;14.10;85.30
70366;DHT22;57787;48.216;12.396;2022-08-24T00:41:50;14.10;85.20
70366;DHT22;57787;48.216;12.396;2022-08-24T00:44:17;14.10;86.20
70366;DHT22;57787;48.216;12.396;2022-08-24T00:46:51;14.00;86.20
70366;DHT22;57787;48.216;12.396;2022-08-24T00:49:38;14.00;87.00
70366;DHT22;57787;48.216;12.396;2022-08-24T00:52:13;14.00;86.40
70366;DHT22;57787;48.216;12.396;2022-08-24T00:54:43;14.00;86.60
70366;DHT22;57787;48.216;12.396;2022-08-24T00:57:14;13.90;86.50
70366;DHT22;57787;48.216;12.396;2022-08-24T00:59:42;13.90;87.10
70366;DHT22;57787;48.216;12.396;2022-08-24T01:02:12;13.90;86.40
70366;DHT22;57787;48.216;12.396;2022-08-24T01:04:44;13.90;86.20
70366;DHT22;57787;48.216;12.396;2022-08-24T01:07:14;13.80;86.20
70366;DHT22;57787;48.216;12.396;2022-08-24T01:09:42;13.80;86.40
70366;DHT22;57787;48.216;12.396;2022-08-24T01:12:12;13.80;86.70
70366;DHT22;57787;48.216;12.396;2022-08-24T01:14:39;13.80;86.90
70366;DHT22;57787;48.216;12.396;2022-08-24T01:17:07;13.80;87.20
70366;DHT22;57787;48.216;12.396;2022-08-24T01:19:54;13.80;87.50
70366;DHT22;57787;48.216;12.396;2022-08-24T01:22:37;13.70;87.20
70366;DHT22;57787;48.216;12.396;2022-08-24T01:25:05;13.70;87.70
70366;DHT22;57787;48.216;12.396;2022-08-24T01:27:33;13.70;87.30
70366;DHT22;57787;48.216;12.396;2022-08-24T01:30:01;13.60;87.00
70366;DHT22;57787;48.216;12.396;2022-08-24T01:32:31;13.60;87.10
70366;DHT22;57787;48.216;12.396;2022-08-24T01:34:58;13.50;87.40
70366;DHT22;57787;48.216;12.396;2022-08-24T01:37:25;13.50;86.90
70366;DHT22;57787;48.216;12.396;2022-08-24T01:39:53;13.50;87.00
70366;DHT22;57787;48.216;12.396;2022-08-24T01:42:21;13.40;86.90
70366;DHT22;57787;48.216;12.396;2022-08-24T01:44:48;13.40;87.40
70366;DHT22;57787;48.216;12.396;2022-08-24T01:47:16;13.30;87.10
70366;DHT22;57787;48.216;12.396;2022-08-24T01:49:48;13.30;87.10
70366;DHT22;57787;48.216;12.396;2022-08-24T01:52:22;13.30;87.60
70366;DHT22;57787;48.216;12.396;2022-08-24T01:54:51;13.30;87.50
70366;DHT22;57787;48.216;12.396;2022-08-24T01:57:19;13.30;87.40
70366;DHT22;57787;48.216;12.396;2022-08-24T01:59:49;13.20;87.00
70366;DHT22;57787;48.216;12.396;2022-08-24T02:02:17;13.30;86.70
70366;DHT22;57787;48.216;12.396;2022-08-24T02:04:45;13.20;87.50
70366;DHT22;57787;48.216;12.396;2022-08-24T02:07:12;13.20;87.20
70366;DHT22;57787;48.216;12.396;2022-08-24T02:09:39;13.20;86.80
70366;DHT22;57787;48.216;12.396;2022-08-24T02:12:07;13.20;87.30
70366;DHT22;57787;48.216;12.396;2022-08-24T02:14:35;13.20;88.40
70366;DHT22;57787;48.216;12.396;2022-08-24T02:17:04;13.10;87.60
70366;DHT22;57787;48.216;12.396;2022-08-24T02:19:31;13.10;87.40
70366;DHT22;57787;48.216;12.396;2022-08-24T02:21:57;13.10;87.30
70366;DHT22;57787;48.216;12.396;2022-08-24T02:24:26;13.10;87.50
70366;DHT22;57787;48.216;12.396;2022-08-24T02:26:53;13.10;88.60
70366;DHT22;57787;48.216;12.396;2022-08-24T02:29:21;13.00;88.40
70366;DHT22;57787;48.216;12.396;2022-08-24T02:31:50;13.00;88.20
70366;DHT22;57787;48.216;12.396;2022-08-24T02:34:17;13.00;87.70
70366;DHT22;57787;48.216;12.396;2022-08-24T02:36:44;13.00;87.60
70366;DHT22;57787;48.216;12.396;2022-08-24T02:39:12;13.00;88.40
70366;DHT22;57787;48.216;12.396;2022-08-24T02:41:41;12.90;88.00
70366;DHT22;57787;48.216;12.396;2022-08-24T02:44:11;12.90;87.90
70366;DHT22;57787;48.216;12.396;2022-08-24T02:46:41;12.90;87.70
70366;DHT22;57787;48.216;12.396;2022-08-24T02:49:11;12.90;87.60
70366;DHT22;57787;48.216;12.396;2022-08-24T02:51:41;12.90;88.50
70366;DHT22;57787;48.216;12.396;2022-08-24T02:54:12;12.90;88.70
70366;DHT22;57787;48.216;12.396;2022-08-24T02:56:40;12.80;88.20
70366;DHT22;57787;48.216;12.396;2022-08-24T02:59:07;12.80;88.90
70366;DHT22;57787;48.216;12.396;2022-08-24T03:01:38;12.80;88.30
70366;DHT22;57787;48.216;12.396;2022-08-24T03:04:05;12.80;88.10
70366;DHT22;57787;48.216;12.396;2022-08-24T03:06:32;12.80;87.90
70366;DHT22;57787;48.216;12.396;2022-08-24T03:08:59;12.80;88.10
70366;DHT22;57787;48.216;12.396;2022-08-24T03:11:26;12.80;88.90
70366;DHT22;57787;48.216;12.396;2022-08-24T03:13:55;12.80;89.00
70366;DHT22;57787;48.216;12.396;2022-08-24T03:16:26;12.80;88.40
70366;DHT22;57787;48.216;12.396;2022-08-24T03:18:53;12.80;88.80
70366;DHT22;57787;48.216;12.396;2022-08-24T03:21:21;12.80;89.20
70366;DHT22;57787;48.216;12.396;2022-08-24T03:23:48;12.70;88.70
70366;DHT22;57787;48.216;12.396;2022-08-24T03:26:15;12.70;88.60
70366;DHT22;57787;48.216;12.396;2022-08-24T03:28:43;12.70;88.60
70366;DHT22;57787;48.216;12.396;2022-08-24T03:31:13;12.70;88.30
70366;DHT22;57787;48.216;12.396;2022-08-24T03:33:41;12.70;89.10
70366;DHT22;57787;48.216;12.396;2022-08-24T03:36:09;12.60;88.80
70366;DHT22;57787;48.216;12.396;2022-08-24T03:38:40;12.60;89.10
70366;DHT22;57787;48.216;12.396;2022-08-24T03:41:07;12.60;88.90
70366;DHT22;57787;48.216;12.396;2022-08-24T03:43:36;12.60;88.40
70366;DHT22;57787;48.216;12.396;2022-08-24T03:46:16;12.60;88.90
70366;DHT22;57787;48.216;12.396;2022-08-24T03:48:46;12.50;88.50
70366;DHT22;57787;48.216;12.396;2022-08-24T03:51:16;12.50;88.20
70366;DHT22;57787;48.216;12.396;2022-08-24T03:53:45;12.50;88.40
70366;DHT22;57787;48.216;12.396;2022-08-24T03:56:12;12.50;89.10
70366;DHT22;57787;48.216;12.396;2022-08-24T03:58:40;12.50;88.80
70366;DHT22;57787;48.216;12.396;2022-08-24T04:01:09;12.50;88.60
70366;DHT22;57787;48.216;12.396;2022-08-24T04:03:38;12.50;88.20
70366;DHT22;57787;48.216;12.396;2022-08-24T04:06:12;12.40;88.80
70366;DHT22;57787;48.216;12.396;2022-08-24T04:08:40;12.40;88.90
70366;DHT22;57787;48.216;12.396;2022-08-24T04:11:15;12.40;89.70
70366;DHT22;57787;48.216;12.396;2022-08-24T04:13:43;12.50;89.30
70366;DHT22;57787;48.216;12.396;2022-08-24T04:16:11;12.40;89.10
70366;DHT22;57787;48.216;12.396;2022-08-24T04:18:41;12.40;88.90
70366;DHT22;57787;48.216;12.396;2022-08-24T04:24:11;12.40;89.10
70366;DHT22;57787;48.216;12.396;2022-08-24T04:26:39;12.40;88.80
70366;DHT22;57787;48.216;12.396;2022-08-24T04:29:12;12.50;90.00
70366;DHT22;57787;48.216;12.396;2022-08-24T04:31:47;12.40;90.00
70366;DHT22;57787;48.216;12.396;2022-08-24T04:34:16;12.50;89.70
70366;DHT22;57787;48.216;12.396;2022-08-24T04:36:45;12.50;90.00
70366;DHT22;57787;48.216;12.396;2022-08-24T04:39:13;12.50;90.20
70366;DHT22;57787;48.216;12.396;2022-08-24T04:41:40;12.50;90.20
70366;DHT22;57787;48.216;12.396;2022-08-24T04:44:10;12.60;90.10
70366;DHT22;57787;48.216;12.396;2022-08-24T04:46:38;12.60;90.40
70366;DHT22;57787;48.216;12.396;2022-08-24T04:49:08;12.60;90.30
70366;DHT22;57787;48.216;12.396;2022-08-24T04:51:36;12.70;90.10
70366;DHT22;57787;48.216;12.396;2022-08-24T04:54:05;12.80;90.20
70366;DHT22;57787;48.216;12.396;2022-08-24T04:56:34;12.80;90.40
70366;DHT22;57787;48.216;12.396;2022-08-24T04:59:02;12.90;90.50
70366;DHT22;57787;48.216;12.396;2022-08-24T05:01:31;13.00;90.30
70366;DHT22;57787;48.216;12.396;2022-08-24T05:04:01;13.00;90.50
70366;DHT22;57787;48.216;12.396;2022-08-24T05:06:30;13.10;90.60
70366;DHT22;57787;48.216;12.396;2022-08-24T05:08:58;13.20;90.60
70366;DHT22;57787;48.216;12.396;2022-08-24T05:11:27;13.30;90.60
70366;DHT22;57787;48.216;12.396;2022-08-24T05:13:55;13.40;90.60
70366;DHT22;57787;48.216;12.396;2022-08-24T05:16:22;13.60;90.80
70366;DHT22;57787;48.216;12.396;2022-08-24T05:18:51;13.70;91.10
70366;DHT22;57787;48.216;12.396;2022-08-24T05:21:19;13.80;91.10
70366;DHT22;57787;48.216;12.396;2022-08-24T05:23:48;13.90;91.20
70366;DHT22;57787;48.216;12.396;2022-08-24T05:26:17;14.00;91.00
70366;DHT22;57787;48.216;12.396;2022-08-24T05:28:45;14.10;91.20
70366;DHT22;57787;48.216;12.396;2022-08-24T05:31:17;14.30;90.70
70366;DHT22;57787;48.216;12.396;2022-08-24T05:33:45;14.40;90.30
70366;DHT22;57787;48.216;12.396;2022-08-24T05:36:14;14.50;89.80
70366;DHT22;57787;48.216;12.396;2022-08-24T05:38:41;14.60;89.60
70366;DHT22;57787;48.216;12.396;2022-08-24T05:41:08;14.80;89.20
70366;DHT22;57787;48.216;12.396;2022-08-24T05:43:37;14.90;89.30
70366;DHT22;57787;48.216;12.396;2022-08-24T05:46:05;15.00;89.00
70366;DHT22;57787;48.216;12.396;2022-08-24T05:48:32;15.10;88.80
70366;DHT22;57787;48.216;12.396;2022-08-24T05:51:06;15.30;88.70
70366;DHT22;57787;48.216;12.396;2022-08-24T05:53:38;15.50;88.60
70366;DHT22;57787;48.216;12.396;2022-08-24T05:56:07;15.70;87.80
70366;DHT22;57787;48.216;12.396;2022-08-24T05:58:35;15.80;87.80
70366;DHT22;57787;48.216;12.396;2022-08-24T06:01:04;15.90;87.30
70366;DHT22;57787;48.216;12.396;2022-08-24T06:03:31;16.00;86.70
70366;DHT22;57787;48.216;12.396;2022-08-24T06:06:00;16.20;86.50
70366;DHT22;57787;48.216;12.396;2022-08-24T06:08:28;16.30;86.30
70366;DHT22;57787;48.216;12.396;2022-08-24T06:10:58;16.30;86.00
70366;DHT22;57787;48.216;12.396;2022-08-24T06:13:28;16.50;86.00
70366;DHT22;57787;48.216;12.396;2022-08-24T06:16:09;16.70;85.70
70366;DHT22;57787;48.216;12.396;2022-08-24T06:18:47;16.80;85.40
70366;DHT22;57787;48.216;12.396;2022-08-24T06:21:17;17.00;84.80
70366;DHT22;57787;48.216;12.396;2022-08-24T06:23:47;17.10;84.10
70366;DHT22;57787;48.216;12.396;2022-08-24T06:26:16;17.30;83.80
70366;DHT22;57787;48.216;12.396;2022-08-24T06:29:05;17.50;83.50
70366;DHT22;57787;48.216;12.396;2022-08-24T06:31:40;17.60;83.00
70366;DHT22;57787;48.216;12.396;2022-08-24T06:34:09;17.80;82.30
70366;DHT22;57787;48.216;12.396;2022-08-24T06:36:37;17.70;81.90
70366;DHT22;57787;48.216;12.396;2022-08-24T06:39:07;17.80;82.00
70366;DHT22;57787;48.216;12.396;2022-08-24T06:41:39;17.80;82.00
70366;DHT22;57787;48.216;12.396;2022-08-24T06:44:12;18.00;81.50
70366;DHT22;57787;48.216;12.396;2022-08-24T06:46:47;18.00;81.30
70366;DHT22;57787;48.216;12.396;2022-08-24T06:49:14;18.30;81.90
70366;DHT22;57787;48.216;12.396;2022-08-24T06:51:44;18.40;81.20
70366;DHT22;57787;48.216;12.396;2022-08-24T06:54:16;18.60;79.90
70366;DHT22;57787;48.216;12.396;2022-08-24T06:56:47;18.80;79.10
70366;DHT22;57787;48.216;12.396;2022-08-24T06:59:15;18.90;78.50
70366;DHT22;57787;48.216;12.396;2022-08-24T07:01:42;19.10;77.40
70366;DHT22;57787;48.216;12.396;2022-08-24T07:04:10;19.20;76.90
70366;DHT22;57787;48.216;12.396;2022-08-24T07:06:57;19.30;76.00
70366;DHT22;57787;48.216;12.396;2022-08-24T07:09:24;19.40;76.20
70366;DHT22;57787;48.216;12.396;2022-08-24T07:11:51;19.50;76.20
70366;DHT22;57787;48.216;12.396;2022-08-24T07:14:18;19.70;76.30
70366;DHT22;57787;48.216;12.396;2022-08-24T07:16:46;19.80;75.80
70366;DHT22;57787;48.216;12.396;2022-08-24T07:19:13;19.90;75.30
70366;DHT22;57787;48.216;12.396;2022-08-24T07:21:41;20.10;73.60
70366;DHT22;57787;48.216;12.396;2022-08-24T07:24:09;20.20;74.30
70366;DHT22;57787;48.216;12.396;2022-08-24T07:26:38;20.30;73.70
70366;DHT22;57787;48.216;12.396;2022-08-24T07:29:10;20.40;74.20
70366;DHT22;57787;48.216;12.396;2022-08-24T07:31:58;20.50;72.90
70366;DHT22;57787;48.216;12.396;2022-08-24T07:34:35;20.70;72.70
70366;DHT22;57787;48.216;12.396;2022-08-24T07:37:04;20.80;72.30
70366;DHT22;57787;48.216;12.396;2022-08-24T07:39:35;20.90;72.50
70366;DHT22;57787;48.216;12.396;2022-08-24T07:42:03;21.10;72.20
70366;DHT22;57787;48.216;12.396;2022-08-24T07:44:45;21.30;71.70
70366;DHT22;57787;48.216;12.396;2022-08-24T07:47:13;21.40;70.80
70366;DHT22;57787;48.216;12.396;2022-08-24T07:50:03;21.60;70.50
70366;DHT22;57787;48.216;12.396;2022-08-24T07:52:30;21.80;68.70
70366;DHT22;57787;48.216;12.396;2022-08-24T07:54:58;21.80;69.20
70366;DHT22;57787;48.216;12.396;2022-08-24T07:57:26;22.00;68.70
70366;DHT22;57787;48.216;12.396;2022-08-24T07:59:53;22.20;68.60
70366;DHT22;57787;48.216;12.396;2022-08-24T08:02:20;22.20;67.00
70366;DHT22;57787;48.216;12.396;2022-08-24T08:04:50;22.30;65.90
70366;DHT22;57787;48.216;12.396;2022-08-24T08:07:19;22.40;64.70
70366;DHT22;57787;48.216;12.396;2022-08-24T08:09:49;22.40;65.60
70366;DHT22;57787;48.216;12.396;2022-08-24T08:12:16;22.50;64.30
70366;DHT22;57787;48.216;12.396;2022-08-24T08:14:53;22.50;61.70
70366;DHT22;57787;48.216;12.396;2022-08-24T08:17:21;22.60;63.70
70366;DHT22;57787;48.216;12.396;2022-08-24T08:19:48;22.70;63.80
70366;DHT22;57787;48.216;12.396;2022-08-24T08:22:16;22.80;62.20
70366;DHT22;57787;48.216;12.396;2022-08-24T08:25:24;22.80;63.20
70366;DHT22;57787;48.216;12.396;2022-08-24T08:27:51;22.80;62.30
70366;DHT22;57787;48.216;12.396;2022-08-24T08:30:18;22.80;61.70
70366;DHT22;57787;48.216;12.396;2022-08-24T08:32:45;22.80;62.00
70366;DHT22;57787;48.216;12.396;2022-08-24T08:35:12;22.80;62.10
70366;DHT22;57787;48.216;12.396;2022-08-24T08:37:42;22.80;61.80
70366;DHT22;57787;48.216;12.396;2022-08-24T08:40:11;22.80;64.40
70366;DHT22;57787;48.216;12.396;2022-08-24T08:43:00;22.80;62.70
70366;DHT22;57787;48.216;12.396;2022-08-24T08:56:38;23.50;61.70
70366;DHT22;57787;48.216;12.396;2022-08-24T09:02:00;23.80;59.90
70366;DHT22;57787;48.216;12.396;2022-08-24T09:10:16;23.90;59.90
70366;DHT22;57787;48.216;12.396;2022-08-24T09:20:18;23.80;59.00
70366;DHT22;57787;48.216;12.396;2022-08-24T09:22:45;23.90;58.50
70366;DHT22;57787;48.216;12.396;2022-08-24T09:27:49;24.10;59.30
70366;DHT22;57787;48.216;12.396;2022-08-24T09:30:22;24.20;58.50
70366;DHT22;57787;48.216;12.396;2022-08-24T09:35:17;24.30;59.00
70366;DHT22;57787;48.216;12.396;2022-08-24T09:41:11;24.80;59.30
70366;DHT22;57787;48.216;12.396;2022-08-24T09:46:24;24.90;57.40
70366;DHT22;57787;48.216;12.396;2022-08-24T09:51:45;25.20;57.40
70366;DHT22;57787;48.216;12.396;2022-08-24T10:02:27;24.50;56.50
70366;DHT22;57787;48.216;12.396;2022-08-24T10:07:27;24.20;56.20
70366;DHT22;57787;48.216;12.396;2022-08-24T10:15:30;23.80;57.30
70366;DHT22;57787;48.216;12.396;2022-08-24T10:20:48;24.20;55.30
70366;DHT22;57787;48.216;12.396;2022-08-24T10:26:17;24.50;54.60
70366;DHT22;57787;48.216;12.396;2022-08-24T10:29:01;24.30;52.60
70366;DHT22;57787;48.216;12.396;2022-08-24T10:31:38;24.30;52.30
70366;DHT22;57787;48.216;12.396;2022-08-24T10:37:12;24.20;52.90
70366;DHT22;57787;48.216;12.396;2022-08-24T10:42:23;24.30;52.50
70366;DHT22;57787;48.216;12.396;2022-08-24T10:48:12;24.30;52.10
70366;DHT22;57787;48.216;12.396;2022-08-24T10:55:59;24.30;52.00
70366;DHT22;57787;48.216;12.396;2022-08-24T10:58:32;24.30;51.10
70366;DHT22;57787;48.216;12.396;2022-08-24T11:01:23;24.40;51.60
70366;DHT22;57787;48.216;12.396;2022-08-24T11:06:18;24.70;50.90
70366;DHT22;57787;48.216;12.396;2022-08-24T11:08:56;24.90;52.80
70366;DHT22;57787;48.216;12.396;2022-08-24T11:11:25;25.20;51.50
70366;DHT22;57787;48.216;12.396;2022-08-24T11:16:41;26.00;50.20
70366;DHT22;57787;48.216;12.396;2022-08-24T11:19:29;26.40;49.30
70366;DHT22;57787;48.216;12.396;2022-08-24T11:21:58;26.60;47.80
70366;DHT22;57787;48.216;12.396;2022-08-24T11:24:37;26.80;46.40
70366;DHT22;57787;48.216;12.396;2022-08-24T11:27:17;26.80;45.90
70366;DHT22;57787;48.216;12.396;2022-08-24T11:32:28;26.40;47.60
70366;DHT22;57787;48.216;12.396;2022-08-24T11:34:59;26.60;48.40
70366;DHT22;57787;48.216;12.396;2022-08-24T11:37:32;26.80;48.10
70366;DHT22;57787;48.216;12.396;2022-08-24T11:40:00;26.80;47.10
70366;DHT22;57787;48.216;12.396;2022-08-24T11:50:17;26.60;46.70
70366;DHT22;57787;48.216;12.396;2022-08-24T11:52:49;26.60;46.30
70366;DHT22;57787;48.216;12.396;2022-08-24T11:58:22;26.40;48.30
70366;DHT22;57787;48.216;12.396;2022-08-24T12:05:49;26.50;47.80
70366;DHT22;57787;48.216;12.396;2022-08-24T12:08:21;26.50;49.50
70366;DHT22;57787;48.216;12.396;2022-08-24T12:16:27;26.50;50.00
70366;DHT22;57787;48.216;12.396;2022-08-24T12:21:25;26.60;48.50
70366;DHT22;57787;48.216;12.396;2022-08-24T12:23:58;26.70;47.00
70366;DHT22;57787;48.216;12.396;2022-08-24T12:29:25;26.60;47.60
70366;DHT22;57787;48.216;12.396;2022-08-24T12:31:57;26.50;49.20
70366;DHT22;57787;48.216;12.396;2022-08-24T12:40:22;26.60;49.50
70366;DHT22;57787;48.216;12.396;2022-08-24T12:43:06;26.80;48.70
70366;DHT22;57787;48.216;12.396;2022-08-24T12:45:34;27.10;47.80
70366;DHT22;57787;48.216;12.396;2022-08-24T12:53:26;27.70;45.80
70366;DHT22;57787;48.216;12.396;2022-08-24T13:01:20;27.40;45.20
70366;DHT22;57787;48.216;12.396;2022-08-24T13:09:14;27.00;46.60
70366;DHT22;57787;48.216;12.396;2022-08-24T13:11:42;27.00;46.70
70366;DHT22;57787;48.216;12.396;2022-08-24T13:14:23;27.00;46.00
70366;DHT22;57787;48.216;12.396;2022-08-24T13:17:12;27.20;46.10
70366;DHT22;57787;48.216;12.396;2022-08-24T13:19:40;27.30;45.40
70366;DHT22;57787;48.216;12.396;2022-08-24T13:29:41;27.70;45.00
70366;DHT22;57787;48.216;12.396;2022-08-24T13:32:13;27.50;44.00
70366;DHT22;57787;48.216;12.396;2022-08-24T13:34:44;27.30;44.50
70366;DHT22;57787;48.216;12.396;2022-08-24T13:37:18;27.20;45.30
70366;DHT22;57787;48.216;12.396;2022-08-24T13:43:09;27.10;44.80
70366;DHT22;57787;48.216;12.396;2022-08-24T13:45:16;27.10;45.20
70366;DHT22;57787;48.216;12.396;2022-08-24T13:47:51;26.90;45.50
70366;DHT22;57787;48.216;12.396;2022-08-24T13:55:47;26.70;45.50
70366;DHT22;57787;48.216;12.396;2022-08-24T14:03:40;26.80;45.80
70366;DHT22;57787;48.216;12.396;2022-08-24T14:06:18;26.80;45.50
70366;DHT22;57787;48.216;12.396;2022-08-24T14:24:36;26.30;47.30
70366;DHT22;57787;48.216;12.396;2022-08-24T14:29:39;26.20;47.60
70366;DHT22;57787;48.216;12.396;2022-08-24T14:37:35;25.80;49.80
70366;DHT22;57787;48.216;12.396;2022-08-24T14:40:19;25.80;50.60
70366;DHT22;57787;48.216;12.396;2022-08-24T14:42:54;25.70;49.90
70366;DHT22;57787;48.216;12.396;2022-08-24T14:45:25;25.80;49.50
70366;DHT22;57787;48.216;12.396;2022-08-24T14:58:38;26.20;47.90
70366;DHT22;57787;48.216;12.396;2022-08-24T15:01:18;26.20;48.00
70366;DHT22;57787;48.216;12.396;2022-08-24T15:03:58;26.10;49.30
70366;DHT22;57787;48.216;12.396;2022-08-24T15:06:47;25.80;48.30
70366;DHT22;57787;48.216;12.396;2022-08-24T15:11:47;25.70;48.90
70366;DHT22;57787;48.216;12.396;2022-08-24T15:14:21;25.70;49.80
70366;DHT22;57787;48.216;12.396;2022-08-24T15:17:01;25.70;50.90
70366;DHT22;57787;48.216;12.396;2022-08-24T15:19:30;25.80;48.80
70366;DHT22;57787;48.216;12.396;2022-08-24T15:22:02;25.90;49.80
70366;DHT22;57787;48.216;12.396;2022-08-24T15:24:37;26.00;50.00
70366;DHT22;57787;48.216;12.396;2022-08-24T15:27:10;26.20;49.40
70366;DHT22;57787;48.216;12.396;2022-08-24T15:29:53;26.30;49.40
70366;DHT22;57787;48.216;12.396;2022-08-24T15:32:22;26.30;49.10
70366;DHT22;57787;48.216;12.396;2022-08-24T15:34:54;26.40;48.30
70366;DHT22;57787;48.216;12.396;2022-08-24T15:37:30;26.40;48.20
70366;DHT22;57787;48.216;12.396;2022-08-24T15:39:58;26.40;48.20
70366;DHT22;57787;48.216;12.396;2022-08-24T15:42:30;26.40;49.00
70366;DHT22;57787;48.216;12.396;2022-08-24T15:44:58;26.40;48.20
70366;DHT22;57787;48.216;12.396;2022-08-24T15:47:30;26.30;47.60
70366;DHT22;57787;48.216;12.396;2022-08-24T15:50:07;26.00;48.30
70366;DHT22;57787;48.216;12.396;2022-08-24T16:00:46;25.50;50.10
70366;DHT22;57787;48.216;12.396;2022-08-24T16:06:16;25.30;50.80
70366;DHT22;57787;48.216;12.396;2022-08-24T16:08:55;25.30;50.40
70366;DHT22;57787;48.216;12.396;2022-08-24T16:11:36;25.30;50.30
70366;DHT22;57787;48.216;12.396;2022-08-24T16:14:06;25.30;52.00
70366;DHT22;57787;48.216;12.396;2022-08-24T16:16:38;25.30;52.40
70366;DHT22;57787;48.216;12.396;2022-08-24T16:19:06;25.30;52.50
70366;DHT22;57787;48.216;12.396;2022-08-24T16:35:12;25.50;50.90
70366;DHT22;57787;48.216;12.396;2022-08-24T16:37:40;25.40;51.30
70366;DHT22;57787;48.216;12.396;2022-08-24T16:40:07;25.30;51.30
70366;DHT22;57787;48.216;12.396;2022-08-24T16:42:35;25.20;51.90
70366;DHT22;57787;48.216;12.396;2022-08-24T16:45:03;25.10;53.00
70366;DHT22;57787;48.216;12.396;2022-08-24T16:47:30;25.00;52.80
70366;DHT22;57787;48.216;12.396;2022-08-24T16:49:57;24.80;53.30
70366;DHT22;57787;48.216;12.396;2022-08-24T16:52:24;24.80;53.70
70366;DHT22;57787;48.216;12.396;2022-08-24T16:54:51;24.70;53.90
70366;DHT22;57787;48.216;12.396;2022-08-24T16:57:22;24.50;54.60
70366;DHT22;57787;48.216;12.396;2022-08-24T16:59:50;24.50;54.70
70366;DHT22;57787;48.216;12.396;2022-08-24T17:02:20;24.40;54.80
70366;DHT22;57787;48.216;12.396;2022-08-24T17:04:48;24.30;55.20
70366;DHT22;57787;48.216;12.396;2022-08-24T17:07:16;24.30;55.60
70366;DHT22;57787;48.216;12.396;2022-08-24T17:09:44;24.20;56.50
70366;DHT22;57787;48.216;12.396;2022-08-24T17:12:11;24.10;55.90
70366;DHT22;57787;48.216;12.396;2022-08-24T17:14:38;24.00;56.10
70366;DHT22;57787;48.216;12.396;2022-08-24T17:17:06;24.00;56.30
70366;DHT22;57787;48.216;12.396;2022-08-24T17:19:33;23.90;56.60
70366;DHT22;57787;48.216;12.396;2022-08-24T17:22:03;23.80;57.20
70366;DHT22;57787;48.216;12.396;2022-08-24T17:24:30;23.80;57.00
70366;DHT22;57787;48.216;12.396;2022-08-24T17:26:58;23.80;57.30
70366;DHT22;57787;48.216;12.396;2022-08-24T17:29:26;23.70;57.60
70366;DHT22;57787;48.216;12.396;2022-08-24T17:31:55;23.60;59.00
70366;DHT22;57787;48.216;12.396;2022-08-24T17:34:25;23.50;58.20
70366;DHT22;57787;48.216;12.396;2022-08-24T17:36:57;23.40;58.70
70366;DHT22;57787;48.216;12.396;2022-08-24T17:39:25;23.30;59.30
70366;DHT22;57787;48.216;12.396;2022-08-24T17:41:53;23.30;58.70
70366;DHT22;57787;48.216;12.396;2022-08-24T17:44:22;23.30;58.00
70366;DHT22;57787;48.216;12.396;2022-08-24T17:46:51;23.30;57.40
70366;DHT22;57787;48.216;12.396;2022-08-24T17:49:18;23.20;57.60
70366;DHT22;57787;48.216;12.396;2022-08-24T17:51:45;23.20;57.80
70366;DHT22;57787;48.216;12.396;2022-08-24T17:54:14;23.20;58.10
70366;DHT22;57787;48.216;12.396;2022-08-24T17:56:42;23.00;58.00
70366;DHT22;57787;48.216;12.396;2022-08-24T17:59:21;22.90;58.10
70366;DHT22;57787;48.216;12.396;2022-08-24T18:01:50;22.90;58.30
70366;DHT22;57787;48.216;12.396;2022-08-24T18:04:18;22.80;58.90
70366;DHT22;57787;48.216;12.396;2022-08-24T18:06:46;22.80;59.90
70366;DHT22;57787;48.216;12.396;2022-08-24T18:09:17;22.60;59.70
70366;DHT22;57787;48.216;12.396;2022-08-24T18:11:45;22.50;59.80
70366;DHT22;57787;48.216;12.396;2022-08-24T18:14:13;22.40;60.00
70366;DHT22;57787;48.216;12.396;2022-08-24T18:16:42;22.40;60.40
70366;DHT22;57787;48.216;12.396;2022-08-24T18:19:17;22.30;61.20
70366;DHT22;57787;48.216;12.396;2022-08-24T18:21:48;22.20;61.30
70366;DHT22;57787;48.216;12.396;2022-08-24T18:24:15;22.10;61.80
70366;DHT22;57787;48.216;12.396;2022-08-24T18:26:42;22.00;61.70
70366;DHT22;57787;48.216;12.396;2022-08-24T18:29:19;21.90;62.20
70366;DHT22;57787;48.216;12.396;2022-08-24T18:31:47;21.80;62.60
70366;DHT22;57787;48.216;12.396;2022-08-24T18:34:16;21.80;63.00
70366;DHT22;57787;48.216;12.396;2022-08-24T18:36:43;21.70;63.20
70366;DHT22;57787;48.216;12.396;2022-08-24T18:39:16;21.70;63.40
70366;DHT22;57787;48.216;12.396;2022-08-24T18:41:43;21.60;63.80
70366;DHT22;57787;48.216;12.396;2022-08-24T18:44:19;21.50;64.20
70366;DHT22;57787;48.216;12.396;2022-08-24T18:46:47;21.50;64.40
70366;DHT22;57787;48.216;12.396;2022-08-24T18:49:15;21.40;64.90
70366;DHT22;57787;48.216;12.396;2022-08-24T18:51:42;21.30;65.80
70366;DHT22;57787;48.216;12.396;2022-08-24T18:54:11;21.20;65.60
70366;DHT22;57787;48.216;12.396;2022-08-24T18:56:39;21.10;65.50
70366;DHT22;57787;48.216;12.396;2022-08-24T18:59:07;21.00;66.70
70366;DHT22;57787;48.216;12.396;2022-08-24T19:01:36;20.90;66.50
70366;DHT22;57787;48.216;12.396;2022-08-24T19:04:24;20.80;67.00
70366;DHT22;57787;48.216;12.396;2022-08-24T19:06:59;20.80;67.90
70366;DHT22;57787;48.216;12.396;2022-08-24T19:09:27;20.60;68.40
70366;DHT22;57787;48.216;12.396;2022-08-24T19:12:00;20.60;68.50
70366;DHT22;57787;48.216;12.396;2022-08-24T19:14:28;20.50;68.30
70366;DHT22;57787;48.216;12.396;2022-08-24T19:16:55;20.40;68.90